Time;durP1;ratioP1;P1;durP2;ratioP2;P2;SDS_P1;SDS_P2;PMS_P1;PMS_P2;Temp;Humidity;BMP_temperature;BMP_pressure;BME280_temperature;BME280_humidity;BME280_pressure;Samples;Min_cycle;Max_cycle;Signal;HPM_P1;HPM_P2
2021/07/05 00:02:17;;;;;;;4.45;1.77;;;;;;;24.40;47.54;99382.75;4390270;32;20100;-78
2021/07/05 00:04:43;;;;;;;4.80;1.60;;;;;;;24.33;47.62;99383.44;4390149;32;20165;-78
2021/07/05 00:07:10;;;;;;;4.28;1.73;;;;;;;24.30;47.58;99381.72;4391136;32;20108;-78
2021/07/05 00:09:36;;;;;;;3.08;1.80;;;;;;;24.16;47.66;99391.00;4390738;32;20086;-77
2021/07/05 00:12:04;;;;;;;2.75;2.00;;;;;;;23.85;48.57;99395.75;4391267;32;20120;-77
2021/07/05 00:14:30;;;;;;;3.35;1.83;;;;;;;23.98;48.38;99389.94;4388513;32;20038;-77
2021/07/05 00:16:56;;;;;;;5.18;2.22;;;;;;;23.69;49.27;99394.09;4389578;32;20445;-78
2021/07/05 00:19:22;;;;;;;5.90;2.53;;;;;;;23.46;49.70;99390.22;4391914;32;20081;-78
2021/07/05 00:21:48;;;;;;;3.75;2.50;;;;;;;23.48;49.97;99396.94;4390111;32;20042;-76
2021/07/05 00:24:16;;;;;;;6.62;3.35;;;;;;;23.66;49.87;99382.94;4389875;32;20042;-76
2021/07/05 00:26:42;;;;;;;6.60;3.85;;;;;;;23.63;50.53;99381.19;4389727;32;20135;-78
2021/07/05 00:29:08;;;;;;;6.25;4.55;;;;;;;23.43;50.32;99379.88;4393565;32;20050;-77
2021/07/05 00:31:34;;;;;;;6.78;4.72;;;;;;;23.42;50.28;99381.19;4389280;32;20116;-78
2021/07/05 00:34:00;;;;;;;8.63;6.65;;;;;;;23.43;50.25;99388.47;4388962;32;20108;-77
2021/07/05 00:36:26;;;;;;;12.48;6.78;;;;;;;23.34;50.40;99380.34;4388913;32;20184;-78
2021/07/05 00:38:52;;;;;;;9.30;6.40;;;;;;;23.38;50.07;99375.78;4392910;32;20119;-77
2021/07/05 00:41:18;;;;;;;13.02;6.80;;;;;;;23.39;50.08;99370.84;4391810;32;20078;-79
2021/07/05 00:43:44;;;;;;;6.35;4.95;;;;;;;23.66;49.78;99380.06;4392561;32;20082;-78
2021/07/05 00:46:10;;;;;;;6.30;4.57;;;;;;;23.80;49.50;99378.66;4387906;32;20426;-78
2021/07/05 00:48:36;;;;;;;5.87;4.07;;;;;;;23.76;49.45;99375.37;4395851;32;20050;-79
2021/07/05 00:51:02;;;;;;;3.47;2.72;;;;;;;23.72;49.41;99387.22;4392694;32;20199;-78
2021/07/05 00:53:29;;;;;;;3.70;2.70;;;;;;;23.58;49.56;99382.88;4390422;32;20062;-77
2021/07/05 00:55:54;;;;;;;5.75;2.90;;;;;;;23.55;49.60;99389.75;4392627;32;20426;-79
2021/07/05 00:58:20;;;;;;;4.65;3.10;;;;;;;23.50;49.61;99388.56;4389108;32;20038;-77
2021/07/05 01:00:47;;;;;;;4.28;2.78;;;;;;;23.38;49.72;99395.91;4391391;32;20082;-77
2021/07/05 01:03:12;;;;;;;5.03;2.62;;;;;;;23.42;49.83;99393.47;4390473;32;20116;-77
2021/07/05 01:05:39;;;;;;;4.82;2.67;;;;;;;23.36;50.01;99392.84;4391881;32;20085;-79
2021/07/05 01:08:05;;;;;;;3.53;2.42;;;;;;;23.62;49.45;99394.78;4389379;32;20081;-75
2021/07/05 01:10:34;;;;;;;5.37;2.15;;;;;;;23.97;48.74;99388.41;4388949;32;20393;-77
2021/07/05 01:13:00;;;;;;;3.55;2.20;;;;;;;23.95;49.20;99399.69;4389991;32;20088;-77
2021/07/05 01:15:30;;;;;;;3.92;2.22;;;;;;;23.95;48.67;99393.16;4390893;32;20058;-77
2021/07/05 01:17:57;;;;;;;3.22;2.30;;;;;;;24.15;48.61;99401.75;4392923;32;20081;-77
2021/07/05 01:20:27;;;;;;;5.20;2.67;;;;;;;24.10;48.64;99391.19;4388025;32;20047;-77
2021/07/05 01:22:53;;;;;;;3.72;2.60;;;;;;;24.28;48.25;99386.50;4391165;32;20083;-78
2021/07/05 01:25:22;;;;;;;3.80;2.53;;;;;;;24.10;48.20;99394.06;4388189;32;20438;-77
2021/07/05 01:27:48;;;;;;;9.02;3.08;;;;;;;24.13;47.62;99398.66;4390383;32;20053;-77
2021/07/05 01:30:17;;;;;;;5.37;2.87;;;;;;;24.11;48.54;99395.59;4393425;32;20081;-76
2021/07/05 01:32:44;;;;;;;4.25;2.50;;;;;;;24.37;48.04;99397.47;4389482;32;20196;-77
2021/07/05 01:35:11;;;;;;;6.18;2.97;;;;;;;24.17;47.63;99390.44;4387438;32;20034;-77
2021/07/05 01:37:37;;;;;;;5.07;3.10;;;;;;;24.31;47.18;99391.91;4386823;32;20133;-76
2021/07/05 01:40:06;;;;;;;4.57;2.42;;;;;;;24.26;47.58;99395.69;4389002;32;20475;-76
2021/07/05 01:42:33;;;;;;;5.40;2.80;;;;;;;24.41;47.43;99395.00;4389062;32;20086;-77
2021/07/05 01:44:59;;;;;;;5.90;2.75;;;;;;;24.35;47.27;99388.63;4390309;32;20638;-75
2021/07/05 01:47:25;;;;;;;8.05;3.08;;;;;;;24.42;47.71;99376.44;4385430;32;20042;-78
2021/07/05 01:49:50;;;;;;;9.35;3.20;;;;;;;24.39;47.94;99392.69;4388767;32;20052;-76
2021/07/05 01:52:16;;;;;;;4.10;2.78;;;;;;;24.42;47.15;99377.19;4392866;32;20094;-76
2021/07/05 01:54:42;;;;;;;4.22;2.50;;;;;;;24.46;47.28;99379.69;4388549;32;20057;-78
2021/07/05 01:57:39;;;;;;;5.43;2.67;;;;;;;24.52;46.52;99374.56;4391594;32;20039;-77
2021/07/05 01:59:57;;;;;;;3.92;2.75;;;;;;;24.61;46.55;99377.66;4388985;32;20050;-78
2021/07/05 02:02:24;;;;;;;6.37;2.70;;;;;;;24.82;46.37;99381.22;4390973;32;20471;-77
2021/07/05 02:04:51;;;;;;;8.77;2.80;;;;;;;24.60;46.16;99384.75;4392303;32;20042;-77
2021/07/05 02:07:18;;;;;;;5.15;2.50;;;;;;;24.70;46.50;99387.91;4388472;32;20141;-77
2021/07/05 02:09:44;;;;;;;3.67;2.20;;;;;;;24.51;46.42;99385.28;4391303;32;20145;-77
2021/07/05 02:12:11;;;;;;;5.03;2.37;;;;;;;24.81;45.92;99376.81;4389954;32;20110;-78
2021/07/05 02:14:37;;;;;;;4.00;2.50;;;;;;;24.85;46.01;99379.34;4388675;32;20744;-77
2021/07/05 02:17:04;;;;;;;5.93;2.53;;;;;;;24.66;46.48;99378.84;4390163;32;20108;-77
2021/07/05 02:19:29;;;;;;;4.65;2.55;;;;;;;24.55;46.32;99382.06;4375816;32;20082;-77
2021/07/05 02:21:55;;;;;;;6.43;2.55;;;;;;;24.48;46.35;99388.53;4391329;32;20475;-76
2021/07/05 02:24:21;;;;;;;4.93;2.62;;;;;;;24.50;46.73;99380.09;4385790;32;20363;-78
2021/07/05 02:26:47;;;;;;;6.18;2.53;;;;;;;24.57;46.81;99385.91;4387508;32;20196;-77
2021/07/05 02:29:12;;;;;;;4.75;2.65;;;;;;;24.41;47.04;99383.50;4386976;32;20188;-78
2021/07/05 02:31:38;;;;;;;5.43;2.67;;;;;;;24.51;46.74;99379.53;4387235;32;20039;-77
2021/07/05 02:34:04;;;;;;;5.15;2.90;;;;;;;24.42;47.05;99379.31;4390641;32;20492;-78
2021/07/05 02:36:30;;;;;;;4.28;2.20;;;;;;;24.30;46.76;99390.34;4392185;32;20079;-77
2021/07/05 02:38:56;;;;;;;4.22;2.85;;;;;;;24.37;47.10;99374.47;4388225;32;20224;-78
2021/07/05 02:41:22;;;;;;;5.62;2.90;;;;;;;24.30;47.67;99381.72;4390988;32;20042;-77
2021/07/05 02:43:47;;;;;;;6.62;3.25;;;;;;;24.29;47.36;99385.94;4389927;32;20125;-78
2021/07/05 02:46:13;;;;;;;6.43;3.50;;;;;;;24.32;46.59;99393.44;4387698;32;20102;-77
2021/07/05 02:48:41;;;;;;;6.15;3.85;;;;;;;24.28;47.64;99390.16;4390670;32;20481;-76
2021/07/05 02:51:08;;;;;;;6.78;4.10;;;;;;;24.40;47.02;99388.50;4385884;32;20499;-78
2021/07/05 02:53:35;;;;;;;6.82;4.60;;;;;;;24.45;46.93;99396.19;4389956;32;20033;-78
2021/07/05 02:56:02;;;;;;;8.13;4.97;;;;;;;24.45;47.11;99390.44;4392108;32;20135;-78
2021/07/05 02:58:29;;;;;;;8.25;4.65;;;;;;;24.70;46.97;99382.91;4391064;32;20051;-77
2021/07/05 03:00:58;;;;;;;7.90;5.15;;;;;;;24.66;46.65;99388.25;4388861;32;20077;-78
2021/07/05 03:03:24;;;;;;;9.52;4.97;;;;;;;24.76;46.37;99386.38;4396635;32;20707;-76
2021/07/05 03:05:50;;;;;;;8.07;4.70;;;;;;;24.68;46.39;99382.72;4389892;32;20385;-76
2021/07/05 03:08:16;;;;;;;7.82;4.72;;;;;;;24.77;46.29;99382.19;4389945;32;20510;-77
2021/07/05 03:10:44;;;;;;;9.02;5.10;;;;;;;24.63;46.09;99369.25;4391128;32;20154;-76
2021/07/05 03:13:12;;;;;;;12.23;4.72;;;;;;;25.00;45.82;99383.03;4396789;32;20399;-76
2021/07/05 03:15:38;;;;;;;7.72;4.60;;;;;;;24.79;46.21;99384.50;4396616;32;20074;-77
2021/07/05 03:18:05;;;;;;;8.52;4.47;;;;;;;24.59;46.47;99377.47;4393523;32;20513;-76
2021/07/05 03:20:38;;;;;;;7.82;5.03;;;;;;;24.35;46.77;99388.63;4387378;32;20086;-76
2021/07/05 03:23:07;;;;;;;11.32;5.03;;;;;;;24.80;46.18;99383.94;4390815;32;20524;-76
2021/07/05 03:25:35;;;;;;;5.05;3.95;;;;;;;24.74;46.49;99380.44;4392626;32;20128;-76
2021/07/05 03:28:04;;;;;;;7.30;4.90;;;;;;;24.70;46.89;99382.91;4392379;32;20042;-77
2021/07/05 03:30:32;;;;;;;8.30;4.78;;;;;;;24.69;46.68;99380.59;4390559;32;20454;-76
2021/07/05 03:32:59;;;;;;;6.80;4.57;;;;;;;24.62;46.50;99373.47;4391145;32;20401;-76
2021/07/05 03:35:26;;;;;;;8.70;4.57;;;;;;;24.92;46.17;99379.38;4389654;32;20066;-78
2021/07/05 03:37:53;;;;;;;7.43;3.80;;;;;;;24.96;46.43;99373.22;4395284;32;20423;-76
2021/07/05 03:40:23;;;;;;;8.20;3.78;;;;;;;24.99;46.28;99369.97;4392101;32;20047;-77
2021/07/05 03:42:49;;;;;;;7.03;3.62;;;;;;;24.67;45.77;99374.66;4392424;32;20532;-75
2021/07/05 03:45:19;;;;;;;8.43;3.80;;;;;;;24.46;45.91;99371.84;4393693;32;20068;-77
2021/07/05 03:47:45;;;;;;;11.02;3.72;;;;;;;24.17;47.05;99370.31;4390828;32;20065;-77
2021/07/05 03:50:12;;;;;;;6.68;3.70;;;;;;;24.01;47.51;99365.81;4390652;32;20078;-76
2021/07/05 03:52:38;;;;;;;7.32;3.92;;;;;;;23.49;48.57;99375.53;4393989;32;20078;-76
2021/07/05 03:55:06;;;;;;;6.70;3.37;;;;;;;23.65;48.38;99378.53;4391502;32;20046;-76
2021/07/05 03:57:32;;;;;;;6.70;3.87;;;;;;;23.66;48.65;99368.59;4392967;32;20039;-76
2021/07/05 03:59:58;;;;;;;5.57;4.03;;;;;;;23.61;48.34;99378.09;4391023;32;20345;-76
2021/07/05 04:02:25;;;;;;;7.93;3.95;;;;;;;23.57;48.63;99383.44;4390541;32;20455;-77
2021/07/05 04:04:51;;;;;;;11.38;3.85;;;;;;;23.56;48.62;99385.53;4389961;32;20086;-76
2021/07/05 04:07:18;;;;;;;9.98;3.83;;;;;;;23.62;48.37;99386.16;4388494;32;20428;-77
2021/07/05 04:09:44;;;;;;;6.68;3.70;;;;;;;23.77;48.24;99389.16;4389519;32;20053;-77
2021/07/05 04:12:12;;;;;;;7.47;4.10;;;;;;;23.23;49.39;99386.34;4393539;32;20117;-76
2021/07/05 04:14:39;;;;;;;8.25;4.12;;;;;;;23.54;48.99;99385.34;4392302;32;20022;-76
2021/07/05 04:17:05;;;;;;;9.48;3.67;;;;;;;23.76;48.49;99378.22;4389177;32;20081;-76
2021/07/05 04:19:31;;;;;;;6.15;3.40;;;;;;;23.79;48.41;99392.25;4389855;32;20038;-77
2021/07/05 04:21:57;;;;;;;7.37;3.83;;;;;;;23.40;49.25;99381.75;4375263;32;20097;-76
2021/07/05 04:24:22;;;;;;;5.75;3.35;;;;;;;23.87;47.99;99395.19;4391202;32;20458;-76
2021/07/05 04:26:48;;;;;;;6.80;3.37;;;;;;;24.00;47.75;99378.66;4390281;32;20451;-76
2021/07/05 04:29:15;;;;;;;6.93;3.33;;;;;;;24.00;47.47;99390.16;4390793;32;20490;-76
2021/07/05 04:31:40;;;;;;;6.85;3.40;;;;;;;24.16;47.27;99385.28;4391352;32;20505;-76
2021/07/05 04:34:06;;;;;;;5.87;3.60;;;;;;;24.05;47.46;99392.09;4388853;32;20085;-76
2021/07/05 04:36:32;;;;;;;6.55;3.10;;;;;;;24.32;47.00;99390.56;4390534;32;20054;-76
2021/07/05 04:38:58;;;;;;;6.65;3.03;;;;;;;24.32;46.84;99387.69;4391694;32;20103;-77
2021/07/05 04:41:23;;;;;;;4.45;2.70;;;;;;;24.24;46.54;99389.72;4387725;32;20421;-77
2021/07/05 04:43:49;;;;;;;4.75;3.10;;;;;;;24.39;46.66;99394.81;4378677;32;20094;-77
2021/07/05 04:46:17;;;;;;;8.07;2.90;;;;;;;24.32;46.66;99387.69;4392314;32;20124;-76
2021/07/05 04:48:42;;;;;;;5.35;3.00;;;;;;;24.30;46.62;99383.84;4391159;32;20081;-77
2021/07/05 04:51:10;;;;;;;7.07;3.22;;;;;;;24.21;46.87;99387.22;4391425;32;20099;-76
2021/07/05 04:53:36;;;;;;;4.55;3.22;;;;;;;24.22;46.94;99383.00;4388156;32;20151;-76
2021/07/05 04:56:02;;;;;;;5.80;3.30;;;;;;;24.19;46.76;99392.75;4391735;32;20046;-76
2021/07/05 04:58:28;;;;;;;8.77;3.58;;;;;;;24.13;47.35;99381.44;4390479;32;20462;-76
2021/07/05 05:00:54;;;;;;;8.75;3.22;;;;;;;23.98;47.50;99383.41;4388829;32;20077;-77
2021/07/05 05:03:20;;;;;;;6.40;3.17;;;;;;;23.92;47.48;99377.78;4390334;32;20058;-77
2021/07/05 05:05:46;;;;;;;5.78;3.42;;;;;;;23.73;48.06;99383.00;4392505;32;20042;-76
2021/07/05 05:08:12;;;;;;;10.75;4.12;;;;;;;23.49;48.23;99381.28;4392038;32;20093;-77
2021/07/05 05:10:40;;;;;;;9.35;4.18;;;;;;;23.53;48.39;99381.69;4388564;32;20041;-75
2021/07/05 05:13:05;;;;;;;11.02;4.50;;;;;;;23.65;47.88;99381.41;4390008;32;20097;-77
2021/07/05 05:15:32;;;;;;;11.60;4.03;;;;;;;23.34;48.68;99371.72;4388357;32;20102;-77
2021/07/05 05:17:58;;;;;;;9.80;4.47;;;;;;;23.26;48.98;99371.66;4390366;32;20605;-77
2021/07/05 05:20:24;;;;;;;7.32;4.12;;;;;;;23.30;48.99;99374.19;4389017;32;20054;-76
2021/07/05 05:22:51;;;;;;;7.70;3.87;;;;;;;23.26;48.77;99373.78;4390350;32;20074;-76
2021/07/05 05:25:18;;;;;;;9.35;4.15;;;;;;;23.03;49.14;99367.75;4389369;32;20415;-77
2021/07/05 05:27:45;;;;;;;8.07;4.57;;;;;;;23.21;48.91;99363.16;4392216;32;20096;-76
2021/07/05 05:30:12;;;;;;;11.73;4.65;;;;;;;23.61;48.29;99373.12;4390818;32;20147;-76
2021/07/05 05:32:38;;;;;;;7.35;3.62;;;;;;;23.41;48.20;99368.19;4391361;32;20467;-76
2021/07/05 05:35:05;;;;;;;9.38;4.43;;;;;;;23.64;47.74;99374.09;4391501;32;20108;-76
2021/07/05 05:37:31;;;;;;;19.58;4.25;;;;;;;23.77;47.54;99371.19;4392789;32;20099;-77
2021/07/05 05:39:57;;;;;;;10.77;4.05;;;;;;;23.41;47.72;99362.44;4386896;32;20090;-77
2021/07/05 05:42:25;;;;;;;10.30;4.15;;;;;;;23.55;47.41;99366.75;4389477;32;20062;-76
2021/07/05 05:44:51;;;;;;;6.85;3.85;;;;;;;23.53;47.45;99378.81;4387286;32;20096;-77
2021/07/05 05:47:17;;;;;;;6.85;3.90;;;;;;;23.67;46.99;99375.84;4388009;32;20074;-77
2021/07/05 05:49:43;;;;;;;5.65;3.60;;;;;;;24.04;46.29;99366.78;4388945;32;20478;-76
2021/07/05 05:52:09;;;;;;;8.52;3.37;;;;;;;24.14;46.13;99377.22;4388336;32;20171;-77
2021/07/05 05:54:35;;;;;;;7.45;3.70;;;;;;;24.40;45.62;99370.47;4385531;32;20055;-76
2021/07/05 05:57:00;;;;;;;8.30;4.40;;;;;;;24.63;45.29;99377.88;4389015;32;20501;-77
2021/07/05 05:59:26;;;;;;;10.75;4.18;;;;;;;24.85;45.09;99371.47;4387345;32;20112;-76
2021/07/05 06:01:53;;;;;;;4.55;3.33;;;;;;;24.95;44.39;99383.22;4393034;32;20078;-77
2021/07/05 06:04:19;;;;;;;11.00;3.05;;;;;;;25.23;43.98;99378.13;4384955;32;20054;-76
2021/07/05 06:06:46;;;;;;;5.90;3.65;;;;;;;25.35;43.71;99382.16;4388623;32;20180;-77
2021/07/05 06:09:12;;;;;;;8.25;3.60;;;;;;;25.30;43.18;99379.44;4389375;32;20050;-77
2021/07/05 06:11:39;;;;;;;7.00;3.37;;;;;;;24.97;43.70;99384.16;4371674;32;20112;-77
2021/07/05 06:14:05;;;;;;;7.32;3.10;;;;;;;25.05;43.58;99384.97;4387524;32;20433;-77
2021/07/05 06:16:34;;;;;;;6.03;3.30;;;;;;;25.34;43.57;99379.88;4389263;32;20105;-78
2021/07/05 06:18:59;;;;;;;5.15;3.08;;;;;;;25.18;43.58;99381.16;4389500;32;20103;-77
2021/07/05 06:21:26;;;;;;;6.90;3.60;;;;;;;25.23;43.46;99389.63;4389165;32;20086;-77
2021/07/05 06:23:58;;;;;;;6.68;3.70;;;;;;;25.21;43.41;99382.88;4385503;32;20043;-77
2021/07/05 06:26:24;;;;;;;12.93;4.18;;;;;;;25.68;42.63;99382.41;4388655;32;20050;-77
2021/07/05 06:28:50;;;;;;;8.63;3.45;;;;;;;25.07;43.14;99382.28;4387049;32;20110;-77
2021/07/05 06:31:16;;;;;;;9.20;3.25;;;;;;;25.65;42.54;99377.81;4388636;32;20078;-77
2021/07/05 06:33:42;;;;;;;6.12;3.12;;;;;;;25.43;42.43;99382.19;4392411;32;20412;-76
2021/07/05 06:36:08;;;;;;;5.15;3.10;;;;;;;25.65;42.03;99378.59;4391486;32;20049;-77
2021/07/05 06:38:34;;;;;;;8.98;3.25;;;;;;;25.59;42.14;99380.88;4386659;32;20108;-76
2021/07/05 06:41:00;;;;;;;7.60;3.33;;;;;;;25.57;41.90;99385.66;4380215;32;20089;-76
2021/07/05 06:43:26;;;;;;;5.18;3.08;;;;;;;25.74;41.71;99377.97;4390576;32;20490;-75
2021/07/05 06:45:52;;;;;;;5.22;3.30;;;;;;;25.74;41.68;99383.00;4385334;32;20240;-76
2021/07/05 06:48:18;;;;;;;7.93;3.20;;;;;;;25.88;41.49;99387.19;4387226;32;20078;-75
2021/07/05 06:50:44;;;;;;;6.93;2.78;;;;;;;25.79;41.14;99391.44;4383767;32;20094;-77
2021/07/05 06:53:10;;;;;;;8.73;3.40;;;;;;;25.79;41.19;99394.31;4386723;32;20116;-77
2021/07/05 06:55:38;;;;;;;6.97;3.22;;;;;;;25.40;42.11;99391.97;4381909;32;20030;-77
2021/07/05 06:58:04;;;;;;;7.22;3.42;;;;;;;25.71;41.63;99389.91;4382759;32;20097;-75
2021/07/05 07:00:30;;;;;;;5.82;3.45;;;;;;;25.73;41.60;99387.19;4380302;32;20038;-75
2021/07/05 07:02:58;;;;;;;7.78;2.70;;;;;;;25.66;41.89;99397.41;4373714;32;20124;-75
2021/07/05 07:05:25;;;;;;;10.98;3.30;;;;;;;25.45;42.17;99401.78;4374377;32;20102;-76
2021/07/05 07:07:54;;;;;;;8.88;3.33;;;;;;;25.92;41.22;99399.13;4377279;32;20090;-77
2021/07/05 07:10:22;;;;;;;7.90;3.10;;;;;;;26.20;40.80;99404.72;4379579;32;20997;-76
2021/07/05 07:12:48;;;;;;;9.00;3.75;;;;;;;25.65;41.45;99389.31;4379402;32;20043;-76
2021/07/05 07:15:18;;;;;;;18.75;4.60;;;;;;;25.69;41.75;99396.25;4378723;32;20093;-75
2021/07/05 07:17:54;;;;;;;7.10;3.50;;;;;;;25.89;40.98;99414.69;4378192;32;20077;-78
2021/07/05 07:20:20;;;;;;;9.63;3.22;;;;;;;25.75;41.27;99416.22;4380676;32;20458;-75
2021/07/05 07:22:45;;;;;;;8.23;3.28;;;;;;;25.28;41.99;99419.59;4376100;32;20082;-75
2021/07/05 07:25:13;;;;;;;11.20;3.95;;;;;;;25.55;41.42;99411.41;4378915;32;20174;-76
2021/07/05 07:27:40;;;;;;;10.18;3.75;;;;;;;25.90;41.12;99417.00;4373359;32;20100;-75
2021/07/05 07:30:09;;;;;;;10.15;3.22;;;;;;;25.64;41.49;99419.50;4371292;32;20521;-76
2021/07/05 07:32:35;;;;;;;9.27;3.22;;;;;;;26.31;40.54;99430.25;4376945;32;20089;-80
2021/07/05 07:35:01;;;;;;;9.30;3.30;;;;;;;26.20;40.24;99427.78;4375788;32;20079;-79
2021/07/05 07:37:26;;;;;;;11.02;2.45;;;;;;;25.62;40.98;99425.06;4378900;32;20097;-79
2021/07/05 07:39:59;;;;;;;7.43;3.35;;;;;;;25.76;40.96;99421.41;4377336;32;20434;-81
2021/07/05 07:42:25;;;;;;;10.18;3.20;;;;;;;25.59;41.63;99426.97;4377567;32;20047;-77
2021/07/05 07:44:51;;;;;;;9.63;3.08;;;;;;;26.41;40.25;99431.97;4378539;32;20082;-80
2021/07/05 07:47:17;;;;;;;15.32;3.17;;;;;;;26.46;40.36;99436.00;4377903;32;20107;-76
2021/07/05 07:49:42;;;;;;;7.85;2.80;;;;;;;26.30;39.85;99441.03;4378251;32;20090;-75
2021/07/05 07:52:08;;;;;;;10.85;3.03;;;;;;;25.61;40.24;99432.91;4376308;32;20449;-79
2021/07/05 07:54:34;;;;;;;7.72;3.08;;;;;;;25.98;40.05;99440.09;4374783;32;20046;-80
2021/07/05 07:57:01;;;;;;;10.35;2.83;;;;;;;25.79;40.55;99437.56;4375551;32;20062;-76
2021/07/05 07:59:26;;;;;;;8.85;3.03;;;;;;;26.11;39.72;99437.00;4362718;32;20479;-79
2021/07/05 08:01:52;;;;;;;8.00;3.30;;;;;;;25.65;40.22;99429.66;4374793;32;20109;-77
2021/07/05 08:04:18;;;;;;;7.78;2.55;;;;;;;25.92;39.81;99443.13;4379685;32;20093;-77
2021/07/05 08:06:44;;;;;;;5.43;3.03;;;;;;;25.92;39.52;99446.00;4377733;32;20105;-77
2021/07/05 08:09:10;;;;;;;6.97;2.50;;;;;;;26.19;39.48;99446.41;4379428;32;20662;-79
2021/07/05 08:11:37;;;;;;;9.30;2.95;;;;;;;25.95;40.22;99444.09;4377682;32;20742;-75
2021/07/05 08:14:05;;;;;;;6.35;2.70;;;;;;;26.03;39.82;99437.00;4377028;32;20116;-81
2021/07/05 08:16:32;;;;;;;7.37;2.65;;;;;;;26.11;40.03;99437.75;4380884;32;20051;-79
2021/07/05 08:18:58;;;;;;;7.70;2.90;;;;;;;26.31;39.30;99445.44;4378890;32;20070;-77
2021/07/05 08:21:24;;;;;;;9.80;3.25;;;;;;;26.65;38.94;99450.78;4379240;32;20534;-78
2021/07/05 08:23:50;;;;;;;7.28;2.72;;;;;;;26.34;38.84;99450.06;4380585;32;20129;-78
2021/07/05 08:26:18;;;;;;;5.43;2.58;;;;;;;26.82;38.44;99457.47;4378138;32;20038;-79
2021/07/05 08:28:45;;;;;;;5.65;2.65;;;;;;;26.89;38.29;99447.25;4380693;32;20116;-79
2021/07/05 08:31:10;;;;;;;9.43;3.08;;;;;;;26.99;38.13;99448.97;4381412;32;20038;-78
2021/07/05 08:33:37;;;;;;;6.05;2.87;;;;;;;26.36;37.83;99311.03;4379254;32;20104;-78
2021/07/05 08:36:04;;;;;;;8.20;3.15;;;;;;;27.57;37.44;99446.94;4380219;32;20038;-78
2021/07/05 08:38:30;;;;;;;10.05;3.37;;;;;;;27.66;36.69;99449.97;4379620;32;20047;-77
2021/07/05 08:40:59;;;;;;;7.68;2.72;;;;;;;27.29;37.28;99450.19;4377216;32;20140;-78
2021/07/05 08:43:27;;;;;;;11.02;2.87;;;;;;;27.58;36.75;99449.25;4378706;32;20041;-78
2021/07/05 08:45:58;;;;;;;7.28;2.95;;;;;;;27.71;36.78;99440.31;4380861;32;20131;-78
2021/07/05 08:48:25;;;;;;;7.85;3.08;;;;;;;27.80;36.37;99439.69;4378932;32;20105;-78
2021/07/05 08:50:51;;;;;;;6.05;2.33;;;;;;;27.89;36.03;99441.19;4380217;32;20434;-77
2021/07/05 08:53:16;;;;;;;9.52;3.08;;;;;;;28.59;34.99;99441.53;4379877;32;20100;-77
2021/07/05 08:55:43;;;;;;;10.18;2.42;;;;;;;28.67;34.52;99442.19;4381249;32;20049;-76
2021/07/05 08:58:08;;;;;;;6.55;2.78;;;;;;;28.61;34.07;99438.78;4379763;32;20043;-76
2021/07/05 09:00:35;;;;;;;5.87;2.58;;;;;;;28.74;33.92;99438.44;4379402;32;20427;-77
2021/07/05 09:03:03;;;;;;;6.57;2.40;;;;;;;29.16;33.66;99433.34;4368728;32;20086;-75
2021/07/05 09:05:29;;;;;;;6.07;2.50;;;;;;;29.24;33.41;99436.91;4376991;32;20081;-77
2021/07/05 09:10:53;;;;;;;5.40;2.03;;;;;;;30.16;31.47;99426.22;3972268;32;15162133;-77
2021/07/05 09:13:24;;;;;;;4.22;2.45;;;;;;;30.34;31.62;99431.34;4432688;32;21118;-76
2021/07/05 09:15:52;;;;;;;6.47;2.00;;;;;;;30.59;31.17;99422.37;4433322;32;20055;-77
2021/07/05 09:18:42;;;;;;;5.22;2.05;;;;;;;31.10;30.43;99432.81;4433338;32;20174;-78
2021/07/05 09:23:52;;;;;;;7.78;2.17;;;;;;;31.36;29.77;99440.59;3976647;32;15026581;-76
2021/07/05 09:26:22;;;;;;;6.35;1.90;;;;;;;31.68;29.45;99437.13;4436557;32;20056;-77
2021/07/05 09:28:50;;;;;;;3.15;1.60;;;;;;;31.20;29.53;99440.12;4437006;32;20113;-76
2021/07/05 09:31:30;;;;;;;3.40;1.52;;;;;;;30.90;29.96;99434.19;4436899;32;20115;-76
2021/07/05 09:33:56;;;;;;;3.25;1.50;;;;;;;30.82;29.40;99434.34;4435600;32;20064;-77
2021/07/05 09:36:24;;;;;;;4.28;1.87;;;;;;;31.05;29.30;99430.97;4438052;32;20116;-78
2021/07/05 09:38:50;;;;;;;3.97;1.70;;;;;;;31.21;28.52;99430.03;4435099;32;20124;-75
2021/07/05 09:41:34;;;;;;;3.17;1.75;;;;;;;31.15;29.34;99420.88;4433859;32;20526;-78
2021/07/05 09:44:08;;;;;;;3.53;1.27;;;;;;;31.46;28.68;99429.69;4437364;32;20169;-82
2021/07/05 09:52:04;;;;;;;5.03;1.73;;;;;;;32.80;26.49;99400.69;3994798;31;15015843;-76
2021/07/05 09:54:33;;;;;;;5.78;1.50;;;;;;;32.80;26.49;99400.69;4449673;32;20171;-79
2021/07/05 09:56:59;;;;;;;3.70;1.77;;;;;;;32.27;27.55;99402.88;4449358;32;20186;-80
2021/07/05 09:59:26;;;;;;;1.45;1.35;;;;;;;31.99;28.05;99408.84;4449520;32;20077;-80
2021/07/05 10:01:54;;;;;;;8.52;1.80;;;;;;;32.05;28.32;99415.09;4443702;32;20048;-79
2021/07/05 10:04:31;;;;;;;9.15;1.98;;;;;;;31.84;28.87;99423.81;4440765;32;20087;-76
2021/07/05 10:07:02;;;;;;;5.03;1.60;;;;;;;30.82;29.60;99416.91;4441714;32;20081;-77
2021/07/05 10:12:27;;;;;;;4.28;1.65;;;;;;;31.48;28.51;99409.50;3971640;32;15024532;-76
2021/07/05 10:17:42;;;;;;;4.47;1.57;;;;;;;30.79;29.62;99413.09;3991822;31;15015175;-85
2021/07/05 10:20:13;;;;;;;4.80;1.50;;;;;;;29.72;33.94;99428.50;4444257;32;20033;-77
2021/07/05 10:22:41;;;;;;;2.75;1.45;;;;;;;28.89;34.53;99423.78;4443605;32;20080;-76
2021/07/05 10:25:08;;;;;;;4.57;1.62;;;;;;;28.11;36.11;99420.75;4444371;32;20089;-78
2021/07/05 10:27:36;;;;;;;4.07;1.62;;;;;;;28.07;36.80;99425.41;4443848;32;20139;-83
2021/07/05 10:30:04;;;;;;;5.97;1.60;;;;;;;28.37;35.99;99425.09;4445041;32;20112;-78
2021/07/05 10:32:31;;;;;;;6.50;1.40;;;;;;;28.65;35.12;99421.75;4444379;32;20157;-76
2021/07/05 10:34:57;;;;;;;6.07;1.10;;;;;;;28.86;33.66;99430.78;4451097;32;20053;-78
2021/07/05 10:37:47;;;;;;;4.68;1.00;;;;;;;29.42;32.13;99423.13;4444821;32;20073;-77
2021/07/05 10:40:14;;;;;;;2.50;1.00;;;;;;;30.42;31.45;99426.16;4443120;32;20118;-78
2021/07/05 10:42:42;;;;;;;3.47;1.40;;;;;;;30.65;30.44;99437.37;4441915;32;20500;-76
2021/07/05 10:45:15;;;;;;;6.20;1.37;;;;;;;31.22;29.71;99437.37;4443657;32;20085;-76
2021/07/05 10:47:45;;;;;;;3.70;1.40;;;;;;;31.21;30.06;99438.75;4442944;32;20123;-77
2021/07/05 10:50:47;;;;;;;2.25;0.82;;;;;;;31.09;29.29;99437.06;4441008;32;20126;-76
2021/07/05 10:53:19;;;;;;;3.45;0.98;;;;;;;31.05;29.33;99439.69;4445274;32;20566;-76
2021/07/05 10:58:27;;;;;;;5.47;1.48;;;;;;;31.10;29.42;99438.63;3952533;32;15722901;-75
2021/07/05 11:00:57;;;;;;;1.23;0.77;;;;;;;31.10;29.42;99438.63;4427624;32;20092;-76
2021/07/05 11:08:52;;;;;;;1.77;0.68;;;;;;;29.50;31.90;99441.16;3980231;32;15035725;-77
2021/07/05 11:14:16;;;;;;;2.80;0.80;;;;;;;28.45;34.01;99458.44;3976181;32;15023622;-79
2021/07/05 11:32:38;;;;;;;5.10;2.08;;;;;;;25.60;43.23;99473.81;3971525;32;15017715;-75
2021/07/05 11:35:05;;;;;;;;;;;;;;;25.60;43.23;99473.81;4420840;32;20721;-76
2021/07/05 11:37:32;;;;;;;1.75;1.50;;;;;;;25.26;44.65;99479.84;4418988;32;19957;-77
2021/07/05 11:39:58;;;;;;;4.55;1.73;;;;;;;25.41;45.22;99471.28;4419466;32;20168;-76
2021/07/05 11:45:08;;;;;;;2.30;1.40;;;;;;;26.06;43.93;99484.88;3975183;32;15029861;-76
2021/07/05 11:55:33;;;;;;;4.30;1.70;;;;;;;27.95;39.99;99464.84;3976323;32;15022030;-77
2021/07/05 11:58:05;;;;;;;3.45;1.50;;;;;;;27.95;39.99;99464.84;4429937;32;20572;-77
2021/07/05 12:00:34;;;;;;;2.70;1.00;;;;;;;27.93;39.49;99471.22;4426155;32;20294;-75
2021/07/05 12:03:06;;;;;;;3.47;1.10;;;;;;;28.20;38.51;99482.94;4422724;32;20065;-79
2021/07/05 12:05:33;;;;;;;3.12;1.15;;;;;;;28.56;38.03;99472.41;4420407;32;20067;-78
2021/07/05 12:08:04;;;;;;;1.10;1.00;;;;;;;28.73;37.04;99478.22;4422259;32;20102;-79
2021/07/05 12:10:33;;;;;;;2.03;1.35;;;;;;;29.05;35.37;99483.09;4420847;32;20105;-76
2021/07/05 12:13:23;;;;;;;3.20;1.92;;;;;;;29.69;34.99;99471.06;4421072;32;20239;-77
2021/07/05 12:18:32;;;;;;;5.22;1.58;;;;;;;29.53;34.35;99477.66;3964462;32;15024785;-78
2021/07/05 12:21:00;;;;;;;1.60;1.30;;;;;;;29.53;34.35;99477.66;4409350;32;20096;-75
2021/07/05 12:23:42;;;;;;;2.15;1.40;;;;;;;28.83;33.79;99473.28;4413615;32;20107;-78
2021/07/05 12:26:13;;;;;;;2.03;1.33;;;;;;;28.95;36.27;99488.03;4409050;32;20462;-76
2021/07/05 12:29:02;;;;;;;4.87;1.70;;;;;;;28.99;35.63;99474.63;4408978;32;20064;-76
2021/07/05 12:31:28;;;;;;;3.65;1.45;;;;;;;29.27;35.31;99467.59;4409932;32;20056;-77